createdAt,value
2023-01-30T00:01:32.632Z,9.70
2023-01-30T00:04:00.691Z,9.50
2023-01-30T00:06:29.165Z,10.00
2023-01-30T00:08:57.171Z,10.20
2023-01-30T00:11:25.402Z,6.60
2023-01-30T00:13:54.483Z,8.40
2023-01-30T00:16:22.750Z,9.80
2023-01-30T00:18:52.210Z,9.80
2023-01-30T00:21:20.478Z,9.80
2023-01-30T00:23:56.114Z,9.70
2023-01-30T00:26:24.254Z,7.90
2023-01-30T00:28:53.023Z,8.20
2023-01-30T00:31:23.473Z,7.00
2023-01-30T00:33:51.872Z,8.80
2023-01-30T00:36:19.968Z,10.50
2023-01-30T00:38:48.319Z,9.40
2023-01-30T00:41:19.019Z,8.10
2023-01-30T00:44:22.842Z,11.40
2023-01-30T00:47:05.958Z,10.10
2023-01-30T00:49:36.393Z,8.80
2023-01-30T00:52:04.919Z,8.60
2023-01-30T00:54:33.828Z,8.30
2023-01-30T00:57:02.504Z,8.80
2023-01-30T00:59:30.608Z,10.60
2023-01-30T01:01:58.868Z,5.80
2023-01-30T01:04:26.992Z,6.90
2023-01-30T01:06:55.418Z,6.80
2023-01-30T01:09:23.558Z,6.60
2023-01-30T01:11:51.979Z,6.20
2023-01-30T01:14:21.130Z,8.00
2023-01-30T01:16:49.857Z,6.10
2023-01-30T01:19:18.168Z,7.80
2023-01-30T01:21:46.589Z,8.10
2023-01-30T01:24:15.401Z,8.30
2023-01-30T01:26:43.734Z,7.40
2023-01-30T01:29:16.009Z,9.20
2023-01-30T01:31:44.721Z,7.30
2023-01-30T01:34:13.112Z,11.00
2023-01-30T01:36:53.362Z,8.00
2023-01-30T01:39:22.863Z,9.40
2023-01-30T01:41:52.168Z,7.50
2023-01-30T01:44:20.678Z,7.30
2023-01-30T01:46:50.239Z,7.80
2023-01-30T01:49:23.562Z,8.60
2023-01-30T01:52:08.848Z,7.70
2023-01-30T01:54:47.420Z,8.70
2023-01-30T01:57:31.207Z,12.10
2023-01-30T02:00:10.101Z,7.20
2023-01-30T02:02:42.221Z,7.30
2023-01-30T02:05:11.499Z,7.30
2023-01-30T02:07:48.317Z,10.80
2023-01-30T02:10:21.916Z,7.20
2023-01-30T02:12:50.801Z,10.40
2023-01-30T02:15:19.656Z,8.70
2023-01-30T02:17:48.657Z,11.40
2023-01-30T02:20:32.492Z,8.50
2023-01-30T02:23:38.516Z,7.50
2023-01-30T02:26:45.563Z,6.30
2023-01-30T02:29:26.401Z,7.30
2023-01-30T02:32:00.435Z,9.00
2023-01-30T02:34:50.723Z,7.20
2023-01-30T02:37:41.685Z,9.20
2023-01-30T02:40:23.553Z,6.10
2023-01-30T02:43:12.950Z,7.60
2023-01-30T02:46:11.870Z,5.70
2023-01-30T02:49:09.251Z,6.50
2023-01-30T02:51:40.363Z,7.00
2023-01-30T02:54:10.513Z,8.20
2023-01-30T02:56:53.139Z,5.90
2023-01-30T02:59:36.341Z,3.90
2023-01-30T03:02:23.916Z,6.10
2023-01-30T03:05:12.051Z,6.00
2023-01-30T03:08:08.509Z,8.00
2023-01-30T03:10:59.114Z,7.10
2023-01-30T03:13:55.711Z,10.10
2023-01-30T03:16:27.414Z,10.20
2023-01-30T03:18:56.333Z,10.90
2023-01-30T03:21:24.447Z,9.20
2023-01-30T03:23:53.440Z,10.30
2023-01-30T03:26:25.047Z,11.10
2023-01-30T03:28:53.461Z,8.30
2023-01-30T03:31:22.290Z,11.60
2023-01-30T03:33:50.750Z,9.40
2023-01-30T03:36:19.379Z,10.50
2023-01-30T03:38:48.097Z,8.00
2023-01-30T03:41:16.659Z,8.50
2023-01-30T03:43:45.144Z,9.80
2023-01-30T03:46:13.652Z,7.60
2023-01-30T03:48:41.893Z,8.40
2023-01-30T03:51:12.468Z,12.60
2023-01-30T03:53:42.071Z,8.50
2023-01-30T03:56:11.205Z,8.90
2023-01-30T03:58:40.532Z,16.30
2023-01-30T04:01:19.710Z,8.20
2023-01-30T04:03:47.931Z,9.30
2023-01-30T04:06:16.433Z,8.70
2023-01-30T04:08:45.843Z,13.30
2023-01-30T04:11:22.802Z,10.20
2023-01-30T04:13:50.894Z,14.40
2023-01-30T04:16:23.667Z,12.10
2023-01-30T04:19:11.267Z,11.10
2023-01-30T04:21:40.605Z,9.50
2023-01-30T04:24:09.098Z,11.10
2023-01-30T04:26:37.409Z,11.90
2023-01-30T04:29:06.844Z,9.80
2023-01-30T04:31:35.576Z,14.00
2023-01-30T04:34:07.479Z,10.20
2023-01-30T04:36:37.187Z,11.60
2023-01-30T04:39:05.436Z,13.00
2023-01-30T04:41:33.891Z,12.90
2023-01-30T04:44:02.834Z,12.00
2023-01-30T04:46:41.944Z,12.20
2023-01-30T04:49:10.925Z,11.10
2023-01-30T04:51:39.379Z,10.20
2023-01-30T04:54:07.954Z,13.70
2023-01-30T04:56:37.619Z,13.20
2023-01-30T04:59:06.776Z,11.90
2023-01-30T05:01:39.600Z,15.10
2023-01-30T05:04:07.875Z,13.80
2023-01-30T05:06:36.792Z,12.50
2023-01-30T05:09:05.650Z,12.30
2023-01-30T05:11:34.587Z,15.90
2023-01-30T05:14:05.603Z,14.10
2023-01-30T05:16:34.166Z,18.80
2023-01-30T05:19:03.329Z,20.20
2023-01-30T05:21:33.897Z,12.00
2023-01-30T05:24:05.389Z,15.90
2023-01-30T05:26:33.553Z,15.00
2023-01-30T05:29:02.884Z,15.00
2023-01-30T05:31:31.201Z,19.70
2023-01-30T05:34:01.994Z,16.80
2023-01-30T05:36:30.775Z,16.00
2023-01-30T05:38:58.910Z,18.10
2023-01-30T05:41:29.913Z,12.70
2023-01-30T05:44:00.651Z,14.20
2023-01-30T05:46:29.210Z,14.30
2023-01-30T05:49:03.410Z,17.30
2023-01-30T05:51:31.834Z,66.90
2023-01-30T05:54:04.176Z,14.00
2023-01-30T05:56:33.792Z,16.80
2023-01-30T05:59:02.151Z,14.30
2023-01-30T06:01:36.115Z,15.50
2023-01-30T06:04:07.204Z,16.70
2023-01-30T06:06:35.306Z,15.90
2023-01-30T06:09:04.021Z,16.70
2023-01-30T06:11:33.352Z,26.90
2023-01-30T06:14:04.680Z,15.90
2023-01-30T06:16:35.866Z,12.70
2023-01-30T06:19:08.360Z,18.70
2023-01-30T06:21:39.058Z,18.10
2023-01-30T06:24:07.717Z,16.10
2023-01-30T06:26:35.860Z,12.90
2023-01-30T06:29:05.723Z,13.50
2023-01-30T06:31:40.003Z,14.20
2023-01-30T06:34:14.158Z,22.20
2023-01-30T06:36:44.217Z,16.60
2023-01-30T06:39:15.803Z,15.30
2023-01-30T06:41:46.365Z,13.90
2023-01-30T06:44:15.403Z,14.60
2023-01-30T06:46:46.232Z,11.80
2023-01-30T06:49:14.577Z,21.70
2023-01-30T06:51:45.709Z,23.30
2023-01-30T06:54:15.996Z,17.70
2023-01-30T06:56:50.620Z,16.50
2023-01-30T06:59:24.136Z,24.00
2023-01-30T07:01:57.309Z,19.60
2023-01-30T07:04:31.136Z,13.40
2023-01-30T07:07:05.273Z,18.00
2023-01-30T07:09:38.899Z,15.70
2023-01-30T07:12:07.160Z,17.50
2023-01-30T07:14:35.245Z,18.60
2023-01-30T07:17:05.645Z,13.50
2023-01-30T07:19:35.514Z,16.70
2023-01-30T07:22:03.689Z,19.20
2023-01-30T07:24:32.720Z,17.80
2023-01-30T07:27:00.884Z,14.20
2023-01-30T07:29:29.381Z,16.20
2023-01-30T07:32:00.907Z,14.20
2023-01-30T07:34:29.518Z,14.60
2023-01-30T07:36:57.685Z,16.60
2023-01-30T07:39:32.639Z,14.40
2023-01-30T07:42:02.811Z,14.50
2023-01-30T07:44:34.486Z,13.60
2023-01-30T07:47:02.891Z,15.00
2023-01-30T07:49:31.212Z,15.30
2023-01-30T07:51:59.513Z,13.00
2023-01-30T07:54:27.669Z,22.40
2023-01-30T07:56:56.063Z,20.10
2023-01-30T07:59:24.319Z,17.30
2023-01-30T08:01:52.598Z,19.90
2023-01-30T08:04:25.732Z,17.20
2023-01-30T08:06:54.269Z,20.00
2023-01-30T08:09:25.473Z,18.70
2023-01-30T08:11:54.664Z,17.90
2023-01-30T08:14:26.614Z,20.00
2023-01-30T08:16:56.913Z,20.20
2023-01-30T08:19:25.793Z,19.20
2023-01-30T08:21:55.176Z,14.30
2023-01-30T08:24:23.333Z,43.70
2023-01-30T08:26:54.042Z,17.20
2023-01-30T08:29:24.816Z,15.20
2023-01-30T08:31:57.996Z,20.00
2023-01-30T08:34:29.492Z,19.60
2023-01-30T08:37:02.201Z,16.00
2023-01-30T08:39:31.150Z,20.10
2023-01-30T08:42:01.841Z,18.40
2023-01-30T08:44:32.820Z,21.80
2023-01-30T08:47:00.981Z,23.50
2023-01-30T08:49:31.550Z,19.60
2023-01-30T08:52:00.008Z,15.80
2023-01-30T08:54:28.293Z,18.50
2023-01-30T08:56:59.358Z,17.30
2023-01-30T08:59:29.084Z,13.30
2023-01-30T09:02:00.105Z,13.60
2023-01-30T09:04:34.805Z,17.30
2023-01-30T09:07:05.015Z,25.80
2023-01-30T09:09:33.887Z,16.30
2023-01-30T09:12:07.228Z,10.80
2023-01-30T09:14:35.783Z,36.90
2023-01-30T09:17:04.248Z,10.10
2023-01-30T09:19:37.314Z,9.30
2023-01-30T09:22:08.983Z,12.10
2023-01-30T09:24:37.124Z,13.50
2023-01-30T09:27:05.402Z,16.40
2023-01-30T09:29:33.581Z,12.40
2023-01-30T09:32:01.848Z,13.50
2023-01-30T09:34:30.349Z,12.40
2023-01-30T09:37:05.324Z,13.10
2023-01-30T09:39:33.523Z,12.40
2023-01-30T09:42:06.216Z,11.40
2023-01-30T09:44:53.443Z,9.90
2023-01-30T09:47:24.332Z,13.70
2023-01-30T09:50:18.903Z,17.50
2023-01-30T09:53:02.012Z,28.80
2023-01-30T09:55:34.436Z,14.20
2023-01-30T09:58:25.200Z,33.20
2023-01-30T10:04:06.230Z,14.60
2023-01-30T10:06:42.928Z,22.60
2023-01-30T10:12:44.210Z,18.30
2023-01-30T10:15:45.856Z,16.70
2023-01-30T10:18:40.377Z,19.40
2023-01-30T10:21:22.814Z,14.40
2023-01-30T10:24:03.994Z,14.40
2023-01-30T10:26:34.241Z,20.30
2023-01-30T10:29:10.645Z,15.80
2023-01-30T10:34:50.905Z,23.10
2023-01-30T10:37:23.261Z,23.80
2023-01-30T10:40:15.016Z,14.60
2023-01-30T10:42:59.802Z,25.50
2023-01-30T10:46:00.435Z,15.20
2023-01-30T10:48:46.017Z,15.50
2023-01-30T10:51:47.921Z,16.00
2023-01-30T10:54:39.138Z,16.50
2023-01-30T10:57:32.429Z,15.20
2023-01-30T11:03:28.650Z,16.10
2023-01-30T11:06:01.484Z,19.30
2023-01-30T11:08:32.092Z,13.50
2023-01-30T11:11:00.993Z,35.60
2023-01-30T11:13:33.591Z,19.30
2023-01-30T11:16:06.709Z,20.50
2023-01-30T11:21:43.859Z,16.90
2023-01-30T11:24:19.671Z,18.70
2023-01-30T11:26:53.510Z,19.00
2023-01-30T11:29:31.488Z,15.90
2023-01-30T11:32:06.029Z,21.40
2023-01-30T11:34:34.334Z,15.50
2023-01-30T11:37:37.465Z,20.30
2023-01-30T11:40:19.025Z,23.50
2023-01-30T11:42:53.123Z,16.30
2023-01-30T11:45:21.292Z,15.50
2023-01-30T11:48:04.840Z,17.20
2023-01-30T11:53:35.988Z,23.90
2023-01-30T11:56:16.149Z,13.60
2023-01-30T12:01:34.543Z,15.10
2023-01-30T12:04:12.146Z,22.30
2023-01-30T12:09:36.070Z,15.10
2023-01-30T12:12:28.581Z,16.40
2023-01-30T12:15:20.924Z,14.80
2023-01-30T12:21:00.907Z,15.10
2023-01-30T12:23:41.166Z,15.10
2023-01-30T12:26:18.950Z,14.40
2023-01-30T12:29:02.614Z,13.90
2023-01-30T12:31:36.035Z,13.70
2023-01-30T12:34:04.348Z,15.20
2023-01-30T12:36:59.602Z,15.30
2023-01-30T12:39:33.591Z,17.50
2023-01-30T12:42:11.779Z,17.20
2023-01-30T12:44:56.654Z,16.60
2023-01-30T12:47:35.115Z,15.00
2023-01-30T12:50:37.197Z,17.30
2023-01-30T12:53:20.534Z,16.90
2023-01-30T12:56:05.397Z,18.30
2023-01-30T12:58:38.483Z,16.10
2023-01-30T13:01:48.308Z,26.00
2023-01-30T13:04:35.789Z,16.30
2023-01-30T13:07:16.751Z,15.80
2023-01-30T13:09:57.629Z,17.80
2023-01-30T13:12:33.084Z,13.30
2023-01-30T13:15:11.593Z,20.50
2023-01-30T13:18:17.289Z,16.20
2023-01-30T13:21:00.509Z,17.60
2023-01-30T13:23:56.514Z,15.70
2023-01-30T13:26:27.271Z,18.20
2023-01-30T13:29:00.410Z,16.30
2023-01-30T13:31:30.695Z,19.90
2023-01-30T13:34:31.763Z,15.00
2023-01-30T13:37:13.543Z,16.60
2023-01-30T13:40:17.513Z,16.80
2023-01-30T13:42:53.814Z,17.40
2023-01-30T13:45:25.282Z,20.60
2023-01-30T13:47:56.811Z,14.40
2023-01-30T13:50:47.318Z,18.90
2023-01-30T13:53:26.023Z,17.50
2023-01-30T13:56:27.184Z,15.40
2023-01-30T13:59:30.827Z,15.60
2023-01-30T14:02:09.551Z,15.90
2023-01-30T14:04:40.960Z,15.80
2023-01-30T14:07:12.103Z,17.10
2023-01-30T14:12:26.136Z,18.10
2023-01-30T14:15:06.502Z,17.70
2023-01-30T14:17:35.272Z,18.60
2023-01-30T14:20:17.660Z,20.40
2023-01-30T14:22:56.043Z,17.80
2023-01-30T14:25:30.714Z,22.80
2023-01-30T14:28:02.001Z,15.50
2023-01-30T14:30:47.931Z,17.60
2023-01-30T14:33:19.406Z,18.20
2023-01-30T14:35:48.745Z,16.40
2023-01-30T14:38:20.151Z,15.20
2023-01-30T14:41:09.688Z,16.10
2023-01-30T14:43:42.967Z,13.90
2023-01-30T14:46:22.128Z,14.30
2023-01-30T14:49:05.326Z,16.00
2023-01-30T14:51:39.745Z,13.60
2023-01-30T14:54:23.455Z,16.20
2023-01-30T14:57:01.238Z,15.20
2023-01-30T14:59:36.360Z,14.40
2023-01-30T15:02:12.327Z,16.70
2023-01-30T15:04:56.358Z,18.00
2023-01-30T15:08:05.363Z,15.30
2023-01-30T15:10:55.995Z,15.70
2023-01-30T15:13:52.638Z,16.60
2023-01-30T15:16:53.273Z,14.30
2023-01-30T15:19:32.514Z,13.40
2023-01-30T15:22:24.031Z,15.00
2023-01-30T15:25:21.234Z,15.40
2023-01-30T15:28:01.611Z,15.40
2023-01-30T15:30:57.397Z,14.30
2023-01-30T15:33:32.083Z,12.90
2023-01-30T15:36:01.810Z,12.80
2023-01-30T15:38:32.163Z,18.00
2023-01-30T15:41:07.014Z,16.90
2023-01-30T15:43:48.386Z,16.60
2023-01-30T15:46:19.544Z,15.50
2023-01-30T15:48:54.736Z,15.60
2023-01-30T15:51:27.400Z,16.60
2023-01-30T15:53:56.256Z,18.90
2023-01-30T15:56:26.747Z,15.50
2023-01-30T15:58:54.825Z,16.60
2023-01-30T16:01:23.070Z,15.40
2023-01-30T16:03:53.367Z,14.70
2023-01-30T16:06:35.193Z,14.10
2023-01-30T16:09:08.306Z,10.70
2023-01-30T16:11:43.194Z,12.20
2023-01-30T16:14:17.958Z,15.50
2023-01-30T16:16:49.367Z,14.60
2023-01-30T16:19:26.566Z,13.60
2023-01-30T16:21:58.246Z,13.40
2023-01-30T16:24:32.217Z,17.00
2023-01-30T16:27:03.675Z,12.60
2023-01-30T16:29:36.929Z,14.40
2023-01-30T16:32:17.629Z,12.60
2023-01-30T16:34:47.970Z,19.00
2023-01-30T16:37:20.628Z,16.80
2023-01-30T16:40:14.001Z,14.70
2023-01-30T16:42:42.409Z,15.50
2023-01-30T16:45:37.995Z,14.60
2023-01-30T16:48:24.653Z,13.20
2023-01-30T16:50:58.930Z,16.60
2023-01-30T16:56:15.253Z,13.80
2023-01-30T16:58:50.154Z,14.60
2023-01-30T17:01:18.596Z,14.30
2023-01-30T17:03:52.294Z,15.10
2023-01-30T17:06:34.361Z,18.70
2023-01-30T17:09:05.091Z,16.10
2023-01-30T17:11:41.256Z,16.70
2023-01-30T17:14:26.137Z,14.20
2023-01-30T17:17:10.724Z,16.70
2023-01-30T17:19:39.075Z,18.30
2023-01-30T17:22:19.311Z,14.40
2023-01-30T17:24:47.443Z,15.30
2023-01-30T17:27:15.502Z,12.60
2023-01-30T17:29:45.745Z,16.20
2023-01-30T17:32:14.225Z,12.10
2023-01-30T17:34:43.880Z,12.40
2023-01-30T17:37:16.729Z,14.40
2023-01-30T17:39:44.776Z,13.80
2023-01-30T17:42:13.984Z,12.40
2023-01-30T17:44:42.428Z,12.40
2023-01-30T17:47:11.618Z,12.90
2023-01-30T17:49:40.028Z,18.40
2023-01-30T17:52:08.398Z,12.80
2023-01-30T17:54:36.456Z,14.40
2023-01-30T17:57:05.908Z,12.00
2023-01-30T17:59:34.678Z,11.80
2023-01-30T18:02:03.014Z,11.20
2023-01-30T18:04:31.156Z,10.50
2023-01-30T18:07:03.731Z,11.80
2023-01-30T18:09:32.101Z,11.80
2023-01-30T18:12:00.511Z,11.80
2023-01-30T18:14:28.975Z,15.00
2023-01-30T18:17:00.302Z,13.90
2023-01-30T18:19:29.803Z,12.50
2023-01-30T18:21:58.573Z,11.40
2023-01-30T18:24:26.827Z,12.90
2023-01-30T18:26:55.970Z,9.20
2023-01-30T18:29:24.097Z,10.10
2023-01-30T18:31:52.711Z,13.20
2023-01-30T18:34:21.178Z,16.20
2023-01-30T18:36:49.202Z,12.80
2023-01-30T18:39:20.339Z,14.20
2023-01-30T18:41:48.415Z,13.30
2023-01-30T18:44:16.571Z,15.00
2023-01-30T18:46:45.124Z,13.30
2023-01-30T18:49:13.834Z,11.70
2023-01-30T18:51:45.735Z,15.20
2023-01-30T18:54:20.932Z,13.00
2023-01-30T18:56:52.281Z,13.10
2023-01-30T18:59:20.483Z,14.30
2023-01-30T19:01:48.799Z,15.90
2023-01-30T19:04:17.905Z,14.20
2023-01-30T19:06:46.073Z,15.90
2023-01-30T19:09:15.308Z,14.30
2023-01-30T19:12:02.240Z,12.60
2023-01-30T19:14:30.481Z,15.20
2023-01-30T19:16:58.748Z,12.90
2023-01-30T19:19:27.392Z,21.50
2023-01-30T19:21:55.535Z,19.30
2023-01-30T19:24:25.090Z,18.60
2023-01-30T19:26:53.408Z,15.60
2023-01-30T19:29:23.292Z,15.90
2023-01-30T19:31:52.032Z,17.20
2023-01-30T19:34:21.169Z,15.20
2023-01-30T19:36:49.383Z,15.50
2023-01-30T19:39:17.824Z,15.40
2023-01-30T19:41:50.171Z,13.10
2023-01-30T19:44:21.110Z,17.60
2023-01-30T19:46:50.711Z,17.50
2023-01-30T19:49:19.032Z,19.20
2023-01-30T19:51:47.224Z,18.10
2023-01-30T19:54:16.255Z,17.70
2023-01-30T19:56:48.489Z,16.20
2023-01-30T19:59:16.841Z,19.30
2023-01-30T20:01:50.154Z,17.50
2023-01-30T20:04:18.454Z,18.20
2023-01-30T20:06:49.769Z,20.20
2023-01-30T20:09:19.350Z,16.60
2023-01-30T20:11:47.734Z,19.10
2023-01-30T20:14:18.817Z,23.50
2023-01-30T20:16:47.534Z,21.00
2023-01-30T20:19:16.782Z,20.60
2023-01-30T20:21:45.600Z,15.60
2023-01-30T20:24:17.475Z,17.80
2023-01-30T20:26:48.357Z,19.40
2023-01-30T20:29:18.106Z,18.90
2023-01-30T20:31:49.948Z,20.80
2023-01-30T20:34:19.030Z,18.80
2023-01-30T20:36:47.666Z,20.90
2023-01-30T20:39:17.321Z,18.20
2023-01-30T20:41:46.060Z,19.80
2023-01-30T20:44:14.700Z,21.60
2023-01-30T20:46:44.950Z,22.50
2023-01-30T20:49:15.066Z,19.60
2023-01-30T20:51:46.474Z,19.80
2023-01-30T20:54:14.867Z,23.50
2023-01-30T20:56:44.744Z,23.30
2023-01-30T20:59:15.240Z,22.80
2023-01-30T21:01:45.721Z,24.90
2023-01-30T21:04:15.227Z,24.90
2023-01-30T21:06:45.686Z,29.70
2023-01-30T21:09:20.540Z,25.00
2023-01-30T21:11:48.994Z,24.60
2023-01-30T21:14:18.192Z,28.50
2023-01-30T21:16:46.667Z,25.40
2023-01-30T21:19:16.556Z,27.90
2023-01-30T21:21:51.002Z,24.90
2023-01-30T21:24:24.658Z,28.40
2023-01-30T21:26:53.282Z,28.40
2023-01-30T21:29:23.319Z,28.80
2023-01-30T21:31:52.196Z,28.70
2023-01-30T21:34:20.471Z,27.60
2023-01-30T21:37:08.774Z,30.80
2023-01-30T21:39:56.809Z,27.30
2023-01-30T21:42:43.631Z,33.30
2023-01-30T21:45:11.760Z,32.30
2023-01-30T21:47:40.338Z,29.60
2023-01-30T21:50:12.065Z,32.50
2023-01-30T21:52:40.420Z,31.10
2023-01-30T21:55:09.631Z,30.40
2023-01-30T21:57:38.039Z,33.80
2023-01-30T22:00:06.680Z,30.40
2023-01-30T22:02:35.258Z,32.20
2023-01-30T22:05:03.859Z,28.80
2023-01-30T22:07:32.871Z,31.30
2023-01-30T22:10:03.980Z,37.30
2023-01-30T22:12:32.814Z,27.80
2023-01-30T22:15:01.595Z,27.70
2023-01-30T22:17:30.083Z,34.30
2023-01-30T22:19:58.377Z,33.00
2023-01-30T22:22:26.528Z,33.50
2023-01-30T22:24:54.870Z,30.60
2023-01-30T22:27:23.236Z,34.40
2023-01-30T22:29:51.954Z,28.20
2023-01-30T22:32:23.182Z,32.40
2023-01-30T22:34:51.909Z,30.90
2023-01-30T22:37:20.047Z,29.20
2023-01-30T22:39:48.061Z,31.80
2023-01-30T22:42:16.760Z,35.20
2023-01-30T22:44:44.868Z,31.00
2023-01-30T22:47:13.012Z,30.00
2023-01-30T22:49:45.258Z,38.20
2023-01-30T22:52:13.321Z,34.00
2023-01-30T22:54:41.665Z,34.80
2023-01-30T22:57:10.113Z,32.20
2023-01-30T22:59:38.295Z,43.00
2023-01-30T23:02:10.385Z,36.40
2023-01-30T23:04:39.109Z,31.40
2023-01-30T23:07:07.551Z,37.50
2023-01-30T23:09:36.735Z,33.50
2023-01-30T23:12:24.696Z,29.70
2023-01-30T23:14:53.269Z,29.90
2023-01-30T23:17:40.282Z,35.30
2023-01-30T23:20:09.706Z,33.50
2023-01-30T23:22:37.960Z,30.90
2023-01-30T23:25:06.784Z,35.70
2023-01-30T23:27:35.524Z,34.50
2023-01-30T23:30:04.676Z,33.00
2023-01-30T23:32:32.938Z,32.20
2023-01-30T23:35:01.871Z,31.90
2023-01-30T23:37:50.522Z,32.90
2023-01-30T23:40:18.684Z,35.80
2023-01-30T23:42:47.280Z,31.70
2023-01-30T23:45:15.454Z,34.80
2023-01-30T23:47:43.734Z,35.60
2023-01-30T23:50:11.795Z,31.30
2023-01-30T23:52:40.069Z,32.80
2023-01-30T23:55:09.297Z,35.50
2023-01-30T23:57:38.602Z,30.60
